Time;durP1;ratioP1;P1;durP2;ratioP2;P2;SDS_P1;SDS_P2;PMS_P1;PMS_P2;Temp;Humidity;BMP_temperature;BMP_pressure;BME280_temperature;BME280_humidity;BME280_pressure;Samples;Min_cycle;Max_cycle;Signal;HPM_P1;HPM_P2
2022/04/28 00:01:50;;;;;;;3.15;1.92;;;14.40;60.50;;;;;;20615041;28;20027;-71
2022/04/28 00:11:51;;;;;;;3.78;1.20;;;14.30;60.40;;;;;;20614398;28;20100;-72
2022/04/28 00:21:51;;;;;;;3.42;1.52;;;14.30;60.30;;;;;;20630071;28;20114;-73
2022/04/28 00:31:52;;;;;;;1.65;1.25;;;14.30;60.30;;;;;;20629046;28;20053;-73
2022/04/28 00:41:52;;;;;;;3.28;1.30;;;14.30;60.30;;;;;;20628514;28;20154;-72
2022/04/28 00:51:54;;;;;;;2.40;1.27;;;14.30;60.20;;;;;;20611757;28;20049;-72
2022/04/28 01:01:55;;;;;;;1.67;1.30;;;14.30;60.20;;;;;;20576842;28;20604;-72
2022/04/28 01:11:56;;;;;;;1.75;1.42;;;14.30;60.30;;;;;;20623054;28;20121;-72
2022/04/28 01:22:00;;;;;;;3.65;1.40;;;14.20;60.20;;;;;;20626512;28;20551;-71
2022/04/28 01:32:01;;;;;;;1.90;1.53;;;14.20;60.20;;;;;;20609163;28;20042;-72
2022/04/28 01:42:05;;;;;;;1.85;1.40;;;14.20;60.20;;;;;;20609783;28;20285;-72
2022/04/28 02:02:45;;;;;;;2.70;1.20;;;14.20;60.20;;;;;;20640558;28;20444;-72
2022/04/28 02:12:45;;;;;;;4.32;1.52;;;14.20;60.20;;;;;;20624317;28;20057;-72
2022/04/28 02:23:14;;;;;;;1.80;1.38;;;14.20;60.10;;;;;;20631033;28;20045;-71
2022/04/28 02:43:32;;;;;;;2.20;1.40;;;14.10;59.90;;;;;;20651817;23;20055;-73
2022/04/28 02:53:40;;;;;;;4.65;1.40;;;14.10;59.80;;;;;;20558358;28;20046;-73
2022/04/28 03:03:41;;;;;;;3.25;1.52;;;14.10;59.80;;;;;;20571534;28;20584;-76
2022/04/28 03:13:42;;;;;;;3.22;1.33;;;14.10;59.70;;;;;;20596214;28;20042;-72
2022/04/28 03:23:42;;;;;;;3.25;1.48;;;14.10;59.70;;;;;;20602146;28;20041;-73
2022/04/28 03:33:45;;;;;;;2.75;1.20;;;14.00;59.50;;;;;;20633871;28;20046;-72
2022/04/28 03:43:46;;;;;;;4.32;1.30;;;14.00;59.40;;;;;;20632614;28;20125;-72
2022/04/28 03:53:46;;;;;;;2.25;1.48;;;14.00;59.40;;;;;;20632101;28;20061;-73
2022/04/28 04:03:47;;;;;;;3.38;1.52;;;14.00;59.40;;;;;;20600137;28;20378;-73
2022/04/28 04:13:48;;;;;;;2.23;1.10;;;14.00;59.30;;;;;;20630148;28;20118;-72
2022/04/28 04:23:49;;;;;;;2.63;1.23;;;14.00;59.20;;;;;;20613408;28;20762;-72
2022/04/28 04:33:49;;;;;;;2.25;1.40;;;14.00;59.20;;;;;;20644929;28;20655;-75
2022/04/28 04:43:50;;;;;;;2.15;1.30;;;13.90;59.10;;;;;;20595284;28;20064;-72
2022/04/28 04:53:51;;;;;;;3.13;1.67;;;13.90;59.10;;;;;;20610397;28;20034;-71
2022/04/28 05:03:52;;;;;;;2.10;1.67;;;13.90;59.10;;;;;;20501235;28;20087;-71
2022/04/28 05:14:04;;;;;;;3.30;1.48;;;13.90;59.10;;;;;;20561831;28;20035;-73
2022/04/28 05:24:05;;;;;;;4.97;2.03;;;13.80;59.00;;;;;;20615432;28;20042;-71
2022/04/28 05:34:25;;;;;;;1.52;1.20;;;13.80;59.00;;;;;;20631712;28;20046;-73
2022/04/28 05:54:49;;;;;;;4.13;2.38;;;13.80;59.10;;;;;;20550100;28;20046;-73
2022/04/28 06:04:50;;;;;;;6.97;2.17;;;13.80;58.90;;;;;;20517488;28;20507;-74
2022/04/28 06:14:54;;;;;;;6.40;1.55;;;13.80;58.80;;;;;;20559476;28;20058;-75
2022/04/28 06:25:07;;;;;;;3.97;1.73;;;13.80;58.80;;;;;;20572318;28;20468;-75
2022/04/28 06:35:09;;;;;;;3.70;1.48;;;13.80;58.90;;;;;;20564449;28;20109;-76
2022/04/28 06:45:11;;;;;;;5.75;2.13;;;13.80;58.90;;;;;;20585399;28;20049;-76
2022/04/28 06:55:30;;;;;;;3.55;1.48;;;13.90;58.90;;;;;;20638862;28;20074;-75
2022/04/28 07:05:33;;;;;;;3.00;1.65;;;13.90;58.80;;;;;;20582886;28;20126;-77
2022/04/28 07:15:36;;;;;;;1.98;1.42;;;13.90;58.80;;;;;;20596202;28;20145;-76
2022/04/28 07:26:05;;;;;;;3.35;1.45;;;13.90;58.80;;;;;;20654730;28;20110;-76
2022/04/28 07:36:06;;;;;;;5.15;1.45;;;13.90;58.80;;;;;;20593743;28;20088;-75
2022/04/28 07:46:26;;;;;;;2.00;1.15;;;13.90;58.70;;;;;;20569698;28;20046;-77
2022/04/28 07:56:27;;;;;;;4.40;1.20;;;13.90;58.60;;;;;;20633868;28;20392;-77
2022/04/28 08:06:27;;;;;;;4.10;1.35;;;13.90;58.70;;;;;;20572779;28;20035;-77
2022/04/28 08:16:28;;;;;;;2.67;1.10;;;13.90;58.70;;;;;;20551772;28;20129;-79
2022/04/28 08:26:29;;;;;;;2.13;1.02;;;14.00;58.70;;;;;;20518665;28;20527;-78
2022/04/28 08:36:32;;;;;;;2.20;1.13;;;13.90;58.70;;;;;;20549183;28;20511;-78
2022/04/28 08:46:52;;;;;;;3.57;1.20;;;14.00;58.80;;;;;;20541638;28;20493;-78
2022/04/28 08:56:56;;;;;;;2.22;1.13;;;14.00;58.70;;;;;;20532072;28;20039;-79
2022/04/28 09:06:58;;;;;;;4.97;1.58;;;14.00;58.70;;;;;;20524718;28;20042;-76
2022/04/28 09:17:40;;;;;;;3.08;1.60;;;14.00;58.50;;;;;;20594914;28;20073;-76
2022/04/28 09:27:41;;;;;;;2.75;1.20;;;14.00;58.50;;;;;;20598543;28;20027;-74
2022/04/28 09:37:44;;;;;;;3.17;1.63;;;14.00;58.40;;;;;;20548072;28;20039;-73
2022/04/28 09:47:45;;;;;;;2.65;1.75;;;14.00;58.40;;;;;;20556473;28;20421;-75
2022/04/28 09:57:46;;;;;;;6.13;1.80;;;14.00;58.50;;;;;;20572250;28;20077;-71
2022/04/28 10:07:47;;;;;;;8.07;2.15;;;14.00;58.50;;;;;;20492418;28;20031;-78
2022/04/28 10:18:01;;;;;;;3.95;2.00;;;14.10;58.50;;;;;;20509684;28;20407;-74
2022/04/28 10:38:31;;;;;;;3.15;1.75;;;14.00;58.40;;;;;;20523911;28;20039;-75
2022/04/28 10:48:38;;;;;;;5.20;1.77;;;14.00;58.30;;;;;;20513676;28;20458;-74
2022/04/28 10:58:39;;;;;;;3.15;1.80;;;14.00;58.40;;;;;;20587546;28;20038;-74
2022/04/28 11:08:44;;;;;;;6.30;2.53;;;14.10;58.40;;;;;;20478532;28;20398;-75
2022/04/28 11:18:45;;;;;;;4.78;2.38;;;14.00;58.30;;;;;;20538298;28;20027;-73
2022/04/28 11:28:45;;;;;;;6.05;2.08;;;14.00;58.10;;;;;;20556043;28;20053;-76
2022/04/28 11:39:24;;;;;;;4.22;2.42;;;14.00;58.00;;;;;;20592471;28;20097;-78
2022/04/28 11:49:27;;;;;;;6.57;2.17;;;14.00;57.80;;;;;;20570242;28;20039;-74
2022/04/28 11:59:35;;;;;;;4.68;1.90;;;14.10;57.80;;;;;;20608750;28;20034;-74
2022/04/28 12:20:10;;;;;;;5.75;2.03;;;14.00;57.90;;;;;;20471357;29;20136;-76
2022/04/28 12:30:20;;;;;;;5.45;2.00;;;14.10;58.00;;;;;;20501179;28;20042;-74
2022/04/28 12:40:21;;;;;;;4.68;1.85;;;14.10;57.90;;;;;;20618993;28;20049;-73
2022/04/28 12:50:23;;;;;;;6.23;1.83;;;14.10;57.80;;;;;;20618910;28;20373;-74
2022/04/28 13:00:23;;;;;;;5.82;2.97;;;14.20;58.00;;;;;;20608050;28;20282;-74
2022/04/28 13:10:24;;;;;;;3.65;1.92;;;14.10;57.80;;;;;;20574362;28;20042;-74
2022/04/28 13:20:25;;;;;;;5.63;2.47;;;14.20;57.60;;;;;;20660468;28;20105;-76
2022/04/28 13:30:26;;;;;;;6.57;1.90;;;14.30;57.40;;;;;;20551603;28;20047;-74
2022/04/28 13:40:26;;;;;;;4.05;2.42;;;14.30;57.10;;;;;;20568115;28;20286;-73
2022/04/28 13:50:37;;;;;;;4.32;1.98;;;14.40;56.90;;;;;;20568244;28;20137;-73
2022/04/28 14:00:39;;;;;;;5.90;1.60;;;14.50;56.80;;;;;;20552017;28;20082;-77
2022/04/28 14:10:39;;;;;;;7.30;1.75;;;14.50;56.80;;;;;;20536265;28;20154;-73
2022/04/28 14:20:41;;;;;;;4.10;1.52;;;14.70;56.70;;;;;;20558097;28;20066;-73
2022/04/28 14:30:42;;;;;;;1.52;1.20;;;14.70;56.30;;;;;;20612265;28;20815;-76
2022/04/28 14:40:43;;;;;;;2.08;0.80;;;14.80;56.40;;;;;;20567429;28;20043;-75
2022/04/28 15:01:04;;;;;;;2.17;0.95;;;15.10;56.50;;;;;;20549571;28;20058;-80
2022/04/28 15:11:05;;;;;;;1.85;1.00;;;15.10;56.30;;;;;;20562055;28;20070;-80
2022/04/28 15:21:05;;;;;;;1.50;0.98;;;15.30;56.30;;;;;;20560404;28;20134;-75
2022/04/28 15:31:06;;;;;;;2.80;1.20;;;15.30;56.30;;;;;;20543316;28;20065;-78
2022/04/28 15:41:06;;;;;;;3.97;1.40;;;15.40;56.20;;;;;;20542510;28;20535;-79
2022/04/28 15:51:07;;;;;;;2.50;0.88;;;15.50;56.10;;;;;;20560364;28;20297;-82
2022/04/28 16:01:08;;;;;;;3.55;0.90;;;15.60;56.00;;;;;;20526195;28;20041;-75
2022/04/28 16:11:09;;;;;;;1.40;0.80;;;15.60;56.00;;;;;;20588107;28;20046;-74
2022/04/28 16:21:10;;;;;;;1.40;0.90;;;15.70;56.00;;;;;;20554006;28;20038;-75
2022/04/28 16:31:11;;;;;;;3.88;0.90;;;15.70;56.00;;;;;;20580809;28;20492;-79
2022/04/28 16:41:12;;;;;;;2.38;0.85;;;15.80;56.10;;;;;;20535387;28;20038;-81
2022/04/28 16:51:12;;;;;;;3.58;1.10;;;15.80;56.10;;;;;;20537097;28;20409;-75
2022/04/28 17:01:14;;;;;;;1.65;0.82;;;15.80;56.20;;;;;;20529822;28;20049;-73
2022/04/28 17:11:16;;;;;;;1.73;1.00;;;15.90;56.30;;;;;;20549196;28;20464;-72
2022/04/28 17:21:17;;;;;;;2.65;0.70;;;15.80;56.40;;;;;;20605209;28;20673;-72
2022/04/28 17:31:18;;;;;;;3.17;1.00;;;15.80;56.60;;;;;;20527604;28;20125;-71
2022/04/28 17:41:18;;;;;;;1.15;0.70;;;15.80;56.80;;;;;;20528563;28;20035;-73
2022/04/28 17:51:19;;;;;;;2.70;1.13;;;15.70;57.00;;;;;;20578093;28;20594;-71
2022/04/28 18:01:19;;;;;;;2.20;0.93;;;15.60;57.20;;;;;;20534910;28;20129;-72
2022/04/28 18:11:21;;;;;;;2.05;0.80;;;15.60;57.40;;;;;;20559597;28;20039;-71
2022/04/28 18:21:22;;;;;;;1.48;0.77;;;15.50;57.50;;;;;;20559794;28;20046;-73
2022/04/28 18:31:23;;;;;;;2.20;0.73;;;15.40;57.70;;;;;;20536676;28;20035;-71
2022/04/28 18:51:44;;;;;;;1.50;0.82;;;15.30;58.00;;;;;;20571798;28;20105;-72
2022/04/28 19:01:45;;;;;;;2.05;0.98;;;15.30;58.10;;;;;;20568386;28;20473;-72
2022/04/28 19:11:46;;;;;;;0.80;0.60;;;15.20;58.20;;;;;;20551069;28;20039;-71
2022/04/28 19:21:46;;;;;;;0.75;0.52;;;15.20;58.30;;;;;;20566402;28;20030;-71
2022/04/28 19:31:47;;;;;;;2.35;0.80;;;15.20;58.40;;;;;;20530152;28;20102;-71
2022/04/28 19:41:51;;;;;;;1.77;0.88;;;15.10;58.50;;;;;;20581953;28;20133;-71
2022/04/28 19:51:53;;;;;;;2.83;0.82;;;15.10;58.60;;;;;;20533625;28;20043;-72
2022/04/28 20:01:54;;;;;;;0.55;0.55;;;15.00;58.70;;;;;;20546336;28;20183;-71
2022/04/28 20:11:55;;;;;;;1.80;1.10;;;15.00;58.70;;;;;;20534251;28;20105;-72
2022/04/28 20:21:55;;;;;;;2.65;0.80;;;15.00;58.80;;;;;;20548471;28;20118;-72
2022/04/28 20:31:56;;;;;;;3.38;0.85;;;15.00;58.70;;;;;;20550219;28;20034;-71
2022/04/28 20:41:57;;;;;;;2.28;1.33;;;14.90;58.70;;;;;;20584443;28;20093;-71
2022/04/28 20:51:58;;;;;;;2.00;1.25;;;14.90;58.60;;;;;;20548289;28;20077;-72
2022/04/28 21:01:58;;;;;;;3.33;1.03;;;14.90;58.50;;;;;;20547850;28;20117;-71
2022/04/28 21:11:59;;;;;;;1.65;1.02;;;14.90;58.50;;;;;;20532583;28;20384;-71
2022/04/28 21:21:59;;;;;;;2.03;1.17;;;14.90;58.50;;;;;;20532127;28;20038;-71
2022/04/28 21:32:00;;;;;;;1.23;0.82;;;14.80;58.40;;;;;;20531377;28;20122;-71
2022/04/28 21:42:01;;;;;;;1.55;1.15;;;14.80;58.40;;;;;;20546886;28;20398;-71
2022/04/28 21:52:01;;;;;;;3.40;1.30;;;14.80;58.40;;;;;;20530213;28;20815;-71
2022/04/28 22:02:02;;;;;;;3.77;1.20;;;14.80;58.40;;;;;;20562175;28;20101;-71
2022/04/28 22:12:03;;;;;;;3.05;1.20;;;14.70;58.30;;;;;;20545684;28;20302;-71
2022/04/28 22:22:04;;;;;;;1.75;0.90;;;14.80;58.40;;;;;;20545126;28;20030;-71
2022/04/28 22:32:05;;;;;;;3.03;1.13;;;14.70;58.30;;;;;;20561092;28;20405;-72
2022/04/28 22:42:06;;;;;;;3.90;1.70;;;14.70;58.40;;;;;;20528386;28;20031;-71
2022/04/28 22:52:07;;;;;;;1.67;1.17;;;14.70;58.40;;;;;;20541545;28;20101;-71
2022/04/28 23:02:08;;;;;;;1.77;1.17;;;14.70;58.30;;;;;;20557274;28;20050;-71
2022/04/28 23:12:10;;;;;;;1.35;1.00;;;14.70;58.30;;;;;;20556012;28;20066;-72
2022/04/28 23:22:11;;;;;;;1.77;1.10;;;14.70;58.30;;;;;;20540977;28;20049;-71
2022/04/28 23:32:11;;;;;;;1.35;1.05;;;14.70;58.30;;;;;;20555182;28;20043;-72
2022/04/28 23:42:27;;;;;;;1.25;0.88;;;14.70;58.30;;;;;;20538761;28;20045;-71
